createdAt,value
2023-04-08T00:01:33.440Z,101316.84
2023-04-08T00:04:00.246Z,101312.94
2023-04-08T00:06:27.399Z,101311.28
2023-04-08T00:08:54.085Z,101313.78
2023-04-08T00:11:20.587Z,101321.59
2023-04-08T00:13:47.149Z,101311.28
2023-04-08T00:16:13.923Z,101318.50
2023-04-08T00:18:41.342Z,101311.91
2023-04-08T00:21:08.423Z,101319.09
2023-04-08T00:23:35.003Z,101309.13
2023-04-08T00:26:01.560Z,101310.28
2023-04-08T00:28:28.122Z,101308.84
2023-04-08T00:30:55.611Z,101313.06
2023-04-08T00:33:24.918Z,101308.94
2023-04-08T00:35:52.264Z,101312.50
2023-04-08T00:38:19.000Z,101310.88
2023-04-08T00:40:45.771Z,101316.44
2023-04-08T00:43:12.414Z,101315.28
2023-04-08T00:45:38.978Z,101317.25
2023-04-08T00:48:06.053Z,101318.06
2023-04-08T00:50:32.753Z,101321.97
2023-04-08T00:52:59.384Z,101321.47
2023-04-08T00:55:25.899Z,101318.69
2023-04-08T00:57:52.628Z,101323.41
2023-04-08T01:00:19.547Z,101326.47
2023-04-08T01:02:51.392Z,101326.81
2023-04-08T01:05:24.279Z,101330.41
2023-04-08T01:07:51.290Z,101326.47
2023-04-08T01:10:29.233Z,101329.25
2023-04-08T01:13:01.199Z,101324.84
2023-04-08T01:15:29.031Z,101326.81
2023-04-08T01:17:56.846Z,101324.31
2023-04-08T01:20:24.709Z,101326.81
2023-04-08T01:23:00.596Z,101325.44
2023-04-08T01:25:32.081Z,101329.88
2023-04-08T01:28:00.033Z,101327.09
2023-04-08T01:30:27.422Z,101333.75
2023-04-08T01:32:56.063Z,101333.75
2023-04-08T01:35:23.265Z,101326.53
2023-04-08T01:37:50.920Z,101329.31
2023-04-08T01:40:20.488Z,101334.03
2023-04-08T01:42:50.951Z,101327.66
2023-04-08T01:45:18.605Z,101324.38
2023-04-08T01:47:47.539Z,101331.03
2023-04-08T01:50:15.258Z,101335.47
2023-04-08T01:52:43.697Z,101332.69
2023-04-08T01:55:12.439Z,101329.94
2023-04-08T01:57:40.866Z,101331.03
2023-04-08T02:00:11.310Z,101333.31
2023-04-08T02:02:47.700Z,101334.44
2023-04-08T02:05:15.060Z,101334.44
2023-04-08T02:07:41.901Z,101333.63
2023-04-08T02:10:08.749Z,101333.47
2023-04-08T02:12:35.411Z,101334.09
2023-04-08T02:15:02.523Z,101330.31
2023-04-08T02:17:29.143Z,101332.03
2023-04-08T02:20:17.841Z,101328.19
2023-04-08T02:22:50.684Z,101334.66
2023-04-08T02:25:19.686Z,101331.03
2023-04-08T02:27:49.438Z,101334.44
2023-04-08T02:30:17.277Z,101342.22
2023-04-08T02:32:44.816Z,101332.78
2023-04-08T02:35:12.206Z,101339.47
2023-04-08T02:37:57.640Z,101335.84
2023-04-08T02:40:25.249Z,101338.94
2023-04-08T02:42:51.907Z,101345.09
2023-04-08T02:45:19.206Z,101345.94
2023-04-08T02:47:46.003Z,101344.00
2023-04-08T02:50:12.567Z,101342.63
2023-04-08T02:52:39.443Z,101348.47
2023-04-08T02:55:10.065Z,101341.28
2023-04-08T02:57:37.324Z,101348.16
2023-04-08T03:00:04.895Z,101349.59
2023-04-08T03:02:31.534Z,101346.81
2023-04-08T03:04:58.213Z,101347.97
2023-04-08T03:07:24.793Z,101351.84
2023-04-08T03:09:51.395Z,101346.63
2023-04-08T03:12:18.195Z,101343.03
2023-04-08T03:14:44.863Z,101341.38
2023-04-08T03:17:11.486Z,101341.38
2023-04-08T03:19:38.146Z,101344.13
2023-04-08T03:22:04.614Z,101344.75
2023-04-08T03:24:31.183Z,101332.53
2023-04-08T03:26:57.714Z,101336.41
2023-04-08T03:29:24.383Z,101334.75
2023-04-08T03:31:51.423Z,101335.91
2023-04-08T03:34:18.141Z,101343.06
2023-04-08T03:36:44.773Z,101345.34
2023-04-08T03:39:11.400Z,101346.50
2023-04-08T03:41:37.901Z,101349.25
2023-04-08T03:44:04.469Z,101354.25
2023-04-08T03:46:31.044Z,101357.56
2023-04-08T03:48:57.682Z,101359.81
2023-04-08T03:51:24.299Z,101362.06
2023-04-08T03:53:50.843Z,101360.63
2023-04-08T03:56:17.539Z,101359.81
2023-04-08T03:58:44.377Z,101356.53
2023-04-08T04:01:10.869Z,101364.53
2023-04-08T04:03:37.620Z,101365.94
2023-04-08T04:06:04.480Z,101365.13
2023-04-08T04:08:31.035Z,101366.56
2023-04-08T04:10:58.745Z,101362.97
2023-04-08T04:13:25.532Z,101364.09
2023-04-08T04:15:52.044Z,101367.69
2023-04-08T04:18:18.627Z,101362.16
2023-04-08T04:20:45.250Z,101365.22
2023-04-08T04:23:12.078Z,101370.47
2023-04-08T04:25:41.146Z,101368.81
2023-04-08T04:28:09.137Z,101372.69
2023-04-08T04:30:39.491Z,101369.94
2023-04-08T04:33:06.805Z,101378.25
2023-04-08T04:35:33.728Z,101377.72
2023-04-08T04:38:00.522Z,101378.84
2023-04-08T04:40:27.136Z,101381.63
2023-04-08T04:42:53.648Z,101386.03
2023-04-08T04:45:20.341Z,101393.84
2023-04-08T04:47:46.955Z,101396.09
2023-04-08T04:50:13.636Z,101392.19
2023-04-08T04:52:41.470Z,101392.19
2023-04-08T04:55:08.333Z,101394.97
2023-04-08T04:57:34.870Z,101393.34
2023-04-08T05:00:03.875Z,101394.44
2023-04-08T05:02:32.287Z,101400.00
2023-04-08T05:04:59.032Z,101396.38
2023-04-08T05:07:25.706Z,101399.16
2023-04-08T05:09:52.213Z,101406.97
2023-04-08T05:12:20.633Z,101408.91
2023-04-08T05:14:47.157Z,101410.84
2023-04-08T05:17:13.798Z,101414.72
2023-04-08T05:19:40.282Z,101409.19
2023-04-08T05:22:06.909Z,101400.34
2023-04-08T05:24:33.762Z,101407.84
2023-04-08T05:27:01.307Z,101405.06
2023-04-08T05:29:28.270Z,101405.91
2023-04-08T05:31:56.436Z,101405.06
2023-04-08T05:34:23.298Z,101410.59
2023-04-08T05:36:53.880Z,101408.16
2023-04-08T05:39:20.629Z,101409.25
2023-04-08T05:41:47.424Z,101402.59
2023-04-08T05:44:14.433Z,101407.31
2023-04-08T05:46:41.206Z,101412.03
2023-04-08T05:49:07.861Z,101418.41
2023-04-08T05:51:34.439Z,101419.25
2023-04-08T05:54:01.042Z,101416.75
2023-04-08T05:56:27.646Z,101422.28
2023-04-08T05:58:54.198Z,101420.66
2023-04-08T06:01:20.949Z,101424.84
2023-04-08T06:03:47.808Z,101426.47
2023-04-08T06:06:14.470Z,101442.00
2023-04-08T06:08:41.143Z,101439.50
2023-04-08T06:11:07.774Z,101447.03
2023-04-08T06:13:34.475Z,101446.19
2023-04-08T06:16:10.862Z,101443.44
2023-04-08T06:18:37.455Z,101443.44
2023-04-08T06:21:04.160Z,101445.66
2023-04-08T06:23:30.792Z,101450.09
2023-04-08T06:25:57.436Z,101455.94
2023-04-08T06:28:24.317Z,101460.66
2023-04-08T06:30:51.127Z,101466.19
2023-04-08T06:33:17.870Z,101467.81
2023-04-08T06:35:44.567Z,101462.59
2023-04-08T06:38:11.280Z,101470.91
2023-04-08T06:40:39.056Z,101470.38
2023-04-08T06:43:07.189Z,101471.22
2023-04-08T06:45:38.169Z,101472.34
2023-04-08T06:48:04.921Z,101484.25
2023-04-08T06:50:31.569Z,101484.25
2023-04-08T06:52:58.153Z,101477.88
2023-04-08T06:55:27.095Z,101483.41
2023-04-08T06:57:53.816Z,101483.41
2023-04-08T07:00:20.609Z,101482.91
2023-04-08T07:02:47.476Z,101485.66
2023-04-08T07:05:14.185Z,101494.50
2023-04-08T07:07:40.850Z,101495.91
2023-04-08T07:10:10.329Z,101500.63
2023-04-08T07:12:37.752Z,101503.69
2023-04-08T07:15:04.706Z,101507.84
2023-04-08T07:17:31.434Z,101508.94
2023-04-08T07:19:58.197Z,101507.28
2023-04-08T07:22:24.840Z,101509.53
2023-04-08T07:24:52.097Z,101516.75
2023-04-08T07:27:18.699Z,101517.25
2023-04-08T07:29:45.330Z,101513.66
2023-04-08T07:32:11.761Z,101516.44
2023-04-08T07:34:38.324Z,101527.28
2023-04-08T07:37:04.928Z,101528.94
2023-04-08T07:39:31.625Z,101527.00
2023-04-08T07:41:58.210Z,101523.38
2023-04-08T07:44:24.694Z,101536.13
2023-04-08T07:46:51.925Z,101534.47
2023-04-08T07:49:18.518Z,101534.47
2023-04-08T07:51:45.062Z,101536.13
2023-04-08T07:54:12.626Z,101528.94
2023-04-08T07:56:40.425Z,101527.28
2023-04-08T07:59:07.405Z,101530.88
2023-04-08T08:01:35.758Z,101534.47
2023-04-08T08:04:03.448Z,101543.09
2023-04-08T08:06:32.393Z,101538.34
2023-04-08T08:08:59.316Z,101543.91
2023-04-08T08:11:27.551Z,101551.09
2023-04-08T08:13:54.226Z,101551.09
2023-04-08T08:16:20.942Z,101551.09
2023-04-08T08:18:47.705Z,101555.81
2023-04-08T08:21:14.570Z,101551.09
2023-04-08T08:23:41.103Z,101550.59
2023-04-08T08:26:11.939Z,101548.66
2023-04-08T08:28:39.282Z,101554.97
2023-04-08T08:31:06.271Z,101554.97
2023-04-08T08:33:33.063Z,101554.97
2023-04-08T08:36:00.156Z,101560.53
2023-04-08T08:38:27.189Z,101563.31
2023-04-08T08:40:57.315Z,101564.13
2023-04-08T08:43:27.375Z,101562.19
2023-04-08T08:45:54.146Z,101573.28
2023-04-08T08:48:21.321Z,101563.84
2023-04-08T08:50:47.857Z,101559.94
2023-04-08T08:53:14.411Z,101575.22
2023-04-08T08:56:02.185Z,101576.06
2023-04-08T08:58:28.633Z,101576.56
2023-04-08T09:00:55.494Z,101565.50
2023-04-08T09:03:23.616Z,101571.03
2023-04-08T09:05:54.304Z,101573.81
2023-04-08T09:08:25.179Z,101568.56
2023-04-08T09:10:52.444Z,101574.63
2023-04-08T09:13:19.096Z,101572.69
2023-04-08T09:16:03.648Z,101569.91
2023-04-08T09:18:30.974Z,101570.44
2023-04-08T09:20:59.211Z,101567.97
2023-04-08T09:23:37.415Z,101576.00
2023-04-08T09:26:14.589Z,101581.53
2023-04-08T09:28:42.491Z,101570.44
2023-04-08T09:31:22.632Z,101576.00
2023-04-08T09:33:50.554Z,101585.97
2023-04-08T09:36:17.240Z,101590.16
2023-04-08T09:38:44.110Z,101588.75
2023-04-08T09:41:13.761Z,101587.06
2023-04-08T09:43:49.337Z,101592.63
2023-04-08T09:46:17.789Z,101595.94
2023-04-08T09:48:55.064Z,101587.91
2023-04-08T09:51:23.591Z,101589.56
2023-04-08T09:53:55.943Z,101588.75
2023-04-08T09:56:22.633Z,101591.19
2023-04-08T09:58:54.777Z,101590.41
2023-04-08T10:01:26.890Z,101596.47
2023-04-08T10:03:54.819Z,101590.63
2023-04-08T10:06:22.485Z,101587.00
2023-04-08T10:08:49.150Z,101571.53
2023-04-08T10:11:16.253Z,101580.38
2023-04-08T10:13:43.526Z,101581.19
2023-04-08T10:16:24.224Z,101577.06
2023-04-08T10:18:53.088Z,101579.53
2023-04-08T10:21:37.761Z,101580.38
2023-04-08T10:24:08.044Z,101583.66
2023-04-08T10:26:37.498Z,101588.69
2023-04-08T10:29:19.258Z,101577.59
2023-04-08T10:31:47.026Z,101579.25
2023-04-08T10:34:19.928Z,101575.91
2023-04-08T10:36:46.696Z,101571.78
2023-04-08T10:39:16.632Z,101581.72
2023-04-08T10:41:46.578Z,101578.13
2023-04-08T10:44:17.372Z,101571.47
2023-04-08T10:46:44.669Z,101577.53
2023-04-08T10:49:11.357Z,101572.56
2023-04-08T10:51:38.402Z,101568.69
2023-04-08T10:54:13.489Z,101567.03
2023-04-08T10:56:46.649Z,101570.34
2023-04-08T10:59:16.438Z,101570.34
2023-04-08T11:01:45.179Z,101573.94
2023-04-08T11:04:15.386Z,101576.72
2023-04-08T11:06:42.616Z,101567.28
2023-04-08T11:09:09.707Z,101568.09
2023-04-08T11:11:37.021Z,101564.22
2023-04-08T11:14:03.663Z,101565.84
2023-04-08T11:16:30.543Z,101562.81
2023-04-08T11:18:58.065Z,101561.13
2023-04-08T11:21:25.823Z,101551.16
2023-04-08T11:23:53.405Z,101557.25
2023-04-08T11:26:21.153Z,101555.31
2023-04-08T11:28:50.890Z,101554.75
2023-04-08T11:31:18.622Z,101565.25
2023-04-08T11:33:49.286Z,101552.22
2023-04-08T11:36:18.005Z,101554.19
2023-04-08T11:38:44.654Z,101552.53
2023-04-08T11:41:12.016Z,101556.94
2023-04-08T11:43:39.288Z,101565.81
2023-04-08T11:46:12.482Z,101555.53
2023-04-08T11:48:39.365Z,101556.34
2023-04-08T11:51:09.188Z,101555.25
2023-04-08T11:53:38.940Z,101542.22
2023-04-08T11:56:17.738Z,101546.94
2023-04-08T11:58:44.425Z,101547.97
2023-04-08T12:01:11.239Z,101539.66
2023-04-08T12:03:38.089Z,101544.41
2023-04-08T12:06:07.073Z,101542.44
2023-04-08T12:08:33.847Z,101546.88
2023-04-08T12:11:09.565Z,101539.66
2023-04-08T12:13:45.781Z,101550.75
2023-04-08T12:16:12.546Z,101556.84
2023-04-08T12:18:39.257Z,101551.00
2023-04-08T12:21:05.806Z,101542.97
2023-04-08T12:23:32.501Z,101545.44
2023-04-08T12:25:59.384Z,101546.28
2023-04-08T12:28:26.293Z,101549.88
2023-04-08T12:30:53.334Z,101546.78
2023-04-08T12:33:20.048Z,101548.16
2023-04-08T12:35:46.853Z,101546.50
2023-04-08T12:38:13.545Z,101553.09
2023-04-08T12:40:40.461Z,101552.31
2023-04-08T12:43:06.922Z,101549.53
2023-04-08T12:45:33.518Z,101553.94
2023-04-08T12:47:59.989Z,101549.22
2023-04-08T12:50:26.533Z,101546.16
2023-04-08T12:52:53.134Z,101546.97
2023-04-08T12:55:19.837Z,101543.91
2023-04-08T12:57:46.856Z,101533.66
2023-04-08T13:00:13.810Z,101540.53
2023-04-08T13:02:42.199Z,101536.09
2023-04-08T13:05:08.944Z,101532.75
2023-04-08T13:07:35.618Z,101539.94
2023-04-08T13:10:03.647Z,101537.47
2023-04-08T13:12:30.358Z,101537.19
2023-04-08T13:14:56.840Z,101540.47
2023-04-08T13:17:23.374Z,101530.78
2023-04-08T13:19:50.747Z,101529.06
2023-04-08T13:22:17.224Z,101527.66
2023-04-08T13:24:43.726Z,101527.66
2023-04-08T13:27:10.466Z,101523.75
2023-04-08T13:29:37.078Z,101522.63
2023-04-08T13:32:03.822Z,101524.31
2023-04-08T13:34:30.679Z,101519.28
2023-04-08T13:36:57.436Z,101514.84
2023-04-08T13:39:24.132Z,101521.72
2023-04-08T13:41:50.875Z,101518.34
2023-04-08T13:44:17.682Z,101513.94
2023-04-08T13:46:44.400Z,101511.19
2023-04-08T13:49:11.086Z,101516.94
2023-04-08T13:51:37.762Z,101511.94
2023-04-08T13:54:04.463Z,101513.03
2023-04-08T13:56:30.933Z,101506.06
2023-04-08T13:58:57.889Z,101508.31
2023-04-08T14:01:24.668Z,101507.72
2023-04-08T14:03:51.240Z,101510.78
2023-04-08T14:06:17.785Z,101508.00
2023-04-08T14:08:44.322Z,101505.22
2023-04-08T14:11:11.020Z,101498.53
2023-04-08T14:13:37.826Z,101507.41
2023-04-08T14:16:04.608Z,101502.88
2023-04-08T14:18:31.368Z,101504.81
2023-04-08T14:20:58.056Z,101507.31
2023-04-08T14:23:24.743Z,101502.03
2023-04-08T14:25:51.437Z,101500.09
2023-04-08T14:28:17.977Z,101501.22
2023-04-08T14:30:44.755Z,101497.31
2023-04-08T14:33:12.125Z,101500.63
2023-04-08T14:35:38.817Z,101505.06
2023-04-08T14:38:05.549Z,101503.94
2023-04-08T14:40:32.239Z,101507.22
2023-04-08T14:42:58.708Z,101501.06
2023-04-08T14:45:25.797Z,101504.38
2023-04-08T14:47:52.429Z,101501.31
2023-04-08T14:50:19.539Z,101499.88
2023-04-08T14:52:48.489Z,101497.63
2023-04-08T14:55:15.056Z,101513.38
2023-04-08T14:57:41.609Z,101508.94
2023-04-08T15:00:08.463Z,101515.94
2023-04-08T15:02:35.043Z,101511.94
2023-04-08T15:05:01.552Z,101510.28
2023-04-08T15:07:28.023Z,101509.16
2023-04-08T15:09:56.944Z,101509.16
2023-04-08T15:12:24.554Z,101505.25
2023-04-08T15:14:51.231Z,101508.47
2023-04-08T15:17:18.006Z,101505.69
2023-04-08T15:19:44.701Z,101501.28
2023-04-08T15:22:12.176Z,101505.69
2023-04-08T15:24:38.856Z,101494.88
2023-04-08T15:27:05.606Z,101498.59
2023-04-08T15:29:32.548Z,101497.16
2023-04-08T15:31:59.028Z,101500.66
2023-04-08T15:34:25.601Z,101500.66
2023-04-08T15:36:52.088Z,101495.03
2023-04-08T15:39:18.664Z,101501.72
2023-04-08T15:41:45.364Z,101498.53
2023-04-08T15:44:12.045Z,101500.50
2023-04-08T15:46:38.750Z,101493.38
2023-04-08T15:49:05.428Z,101497.88
2023-04-08T15:51:33.001Z,101506.53
2023-04-08T15:53:59.463Z,101494.97
2023-04-08T15:56:27.252Z,101501.13
2023-04-08T15:58:54.312Z,101505.06
2023-04-08T16:01:21.413Z,101500.91
2023-04-08T16:03:48.151Z,101498.66
2023-04-08T16:06:14.648Z,101497.63
2023-04-08T16:08:42.159Z,101507.06
2023-04-08T16:11:08.891Z,101500.91
2023-04-08T16:13:35.495Z,101499.78
2023-04-08T16:16:02.485Z,101505.06
2023-04-08T16:18:29.192Z,101502.78
2023-04-08T16:20:56.552Z,101504.13
2023-04-08T16:23:23.499Z,101502.78
2023-04-08T16:25:50.274Z,101511.34
2023-04-08T16:28:18.090Z,101505.47
2023-04-08T16:30:44.700Z,101505.19
2023-04-08T16:33:11.448Z,101499.69
2023-04-08T16:35:38.243Z,101508.13
2023-04-08T16:38:04.902Z,101515.38
2023-04-08T16:40:33.487Z,101508.19
2023-04-08T16:43:00.860Z,101506.84
2023-04-08T16:45:30.785Z,101517.13
2023-04-08T16:47:57.629Z,101505.19
2023-04-08T16:50:24.454Z,101510.75
2023-04-08T16:52:51.068Z,101515.47
2023-04-08T16:55:17.948Z,101510.50
2023-04-08T16:57:44.826Z,101512.47
2023-04-08T17:00:11.796Z,101512.78
2023-04-08T17:02:38.571Z,101510.84
2023-04-08T17:05:05.447Z,101522.16
2023-04-08T17:07:32.841Z,101518.56
2023-04-08T17:09:59.683Z,101514.94
2023-04-08T17:12:26.610Z,101514.44
2023-04-08T17:14:54.035Z,101520.78
2023-04-08T17:17:20.814Z,101522.22
2023-04-08T17:19:47.531Z,101522.22
2023-04-08T17:22:14.064Z,101530.03
2023-04-08T17:24:40.865Z,101524.47
2023-04-08T17:27:07.554Z,101524.78
2023-04-08T17:29:34.203Z,101533.13
2023-04-08T17:32:00.872Z,101533.91
2023-04-08T17:34:27.675Z,101533.91
2023-04-08T17:36:54.309Z,101541.13
2023-04-08T17:39:20.923Z,101530.34
2023-04-08T17:41:47.650Z,101526.75
2023-04-08T17:44:14.442Z,101531.47
2023-04-08T17:46:41.502Z,101532.28
2023-04-08T17:49:10.830Z,101543.63
2023-04-08T17:51:37.624Z,101535.56
2023-04-08T17:54:05.144Z,101541.97
2023-04-08T17:56:33.364Z,101536.19
2023-04-08T17:58:59.995Z,101537.00
2023-04-08T18:01:26.775Z,101535.34
2023-04-08T18:03:53.595Z,101537.28
2023-04-08T18:06:20.492Z,101542.31
2023-04-08T18:08:47.141Z,101544.81
2023-04-08T18:11:13.873Z,101538.44
2023-04-08T18:13:40.522Z,101549.03
2023-04-08T18:16:07.243Z,101556.19
2023-04-08T18:18:36.590Z,101565.34
2023-04-08T18:21:03.318Z,101561.22
2023-04-08T18:23:30.019Z,101555.69
2023-04-08T18:25:56.679Z,101555.69
2023-04-08T18:28:23.426Z,101559.56
2023-04-08T18:30:53.132Z,101565.13
2023-04-08T18:33:19.715Z,101561.81
2023-04-08T18:35:47.084Z,101560.16
2023-04-08T18:38:13.823Z,101567.38
2023-04-08T18:40:40.785Z,101565.72
2023-04-08T18:43:07.684Z,101558.50
2023-04-08T18:45:34.268Z,101571.25
2023-04-08T18:48:01.185Z,101569.59
2023-04-08T18:50:27.913Z,101572.94
2023-04-08T18:52:54.819Z,101573.50
2023-04-08T18:55:21.602Z,101569.59
2023-04-08T18:57:48.896Z,101575.94
2023-04-08T19:00:15.790Z,101577.28
2023-04-08T19:02:42.397Z,101577.81
2023-04-08T19:05:09.184Z,101577.28
2023-04-08T19:07:35.680Z,101576.78
2023-04-08T19:10:02.470Z,101587.31
2023-04-08T19:12:29.234Z,101582.59
2023-04-08T19:14:55.995Z,101586.50
2023-04-08T19:17:22.614Z,101591.25
2023-04-08T19:19:49.244Z,101587.91
2023-04-08T19:22:16.596Z,101589.56
2023-04-08T19:24:43.665Z,101595.66
2023-04-08T19:27:10.374Z,101590.09
2023-04-08T19:29:37.092Z,101596.47
2023-04-08T19:32:04.425Z,101603.97
2023-04-08T19:34:31.117Z,101596.25
2023-04-08T19:36:57.874Z,101596.78
2023-04-08T19:39:26.696Z,101597.91
2023-04-08T19:41:53.566Z,101603.13
2023-04-08T19:44:20.282Z,101602.34
2023-04-08T19:46:47.115Z,101607.88
2023-04-08T19:49:13.732Z,101601.78
2023-04-08T19:51:40.487Z,101610.66
2023-04-08T19:54:07.248Z,101607.88
2023-04-08T19:56:34.151Z,101611.78
2023-04-08T19:59:03.884Z,101607.88
2023-04-08T20:01:30.815Z,101611.78
2023-04-08T20:03:57.611Z,101617.31
2023-04-08T20:06:24.376Z,101614.56
2023-04-08T20:08:52.366Z,101602.91
2023-04-08T20:11:19.399Z,101610.13
2023-04-08T20:13:47.124Z,101605.97
2023-04-08T20:16:14.106Z,101600.41
2023-04-08T20:18:40.937Z,101611.50
2023-04-08T20:21:08.284Z,101603.50
2023-04-08T20:23:34.906Z,101607.91
2023-04-08T20:26:01.550Z,101611.50
2023-04-08T20:28:28.318Z,101607.38
2023-04-08T20:30:55.030Z,101610.69
2023-04-08T20:33:21.568Z,101600.16
2023-04-08T20:35:50.483Z,101604.59
2023-04-08T20:38:17.217Z,101597.38
2023-04-08T20:40:46.822Z,101604.91
2023-04-08T20:43:13.282Z,101598.53
2023-04-08T20:45:39.937Z,101602.41
2023-04-08T20:48:07.502Z,101606.31
2023-04-08T20:50:34.693Z,101611.06
2023-04-08T20:53:01.444Z,101613.53
2023-04-08T20:55:28.094Z,101611.84
2023-04-08T20:57:54.682Z,101602.72
2023-04-08T21:00:21.372Z,101606.31
2023-04-08T21:02:48.432Z,101608.56
2023-04-08T21:05:15.500Z,101598.59
2023-04-08T21:07:44.593Z,101600.25
2023-04-08T21:10:12.589Z,101600.25
2023-04-08T21:12:39.116Z,101601.38
2023-04-08T21:15:06.065Z,101609.41
2023-04-08T21:17:32.743Z,101605.78
2023-04-08T21:19:59.460Z,101606.94
2023-04-08T21:22:26.006Z,101612.47
2023-04-08T21:24:52.508Z,101609.16
2023-04-08T21:27:19.188Z,101618.63
2023-04-08T21:29:45.867Z,101610.28
2023-04-08T21:32:12.648Z,101604.19
2023-04-08T21:34:39.463Z,101605.34
2023-04-08T21:37:06.238Z,101607.28
2023-04-08T21:39:32.858Z,101595.34
2023-04-08T21:41:59.380Z,101596.47
2023-04-08T21:44:26.806Z,101603.16
2023-04-08T21:46:54.776Z,101605.94
2023-04-08T21:49:21.649Z,101594.28
2023-04-08T21:51:48.077Z,101598.72
2023-04-08T21:54:14.827Z,101604.25
2023-04-08T21:56:42.690Z,101605.38
2023-04-08T21:59:09.402Z,101599.31
2023-04-08T22:01:36.094Z,101596.53
2023-04-08T22:04:02.844Z,101593.75
2023-04-08T22:06:32.768Z,101590.16
2023-04-08T22:08:59.670Z,101603.75
2023-04-08T22:11:26.626Z,101600.13
2023-04-08T22:13:53.757Z,101597.66
2023-04-08T22:16:20.351Z,101599.31
2023-04-08T22:18:47.329Z,101602.66
2023-04-08T22:21:13.846Z,101604.34
2023-04-08T22:23:40.706Z,101601.56
2023-04-08T22:26:07.379Z,101604.34
2023-04-08T22:28:34.498Z,101605.44
2023-04-08T22:31:01.426Z,101597.97
2023-04-08T22:33:28.197Z,101609.88
2023-04-08T22:35:57.466Z,101592.69
2023-04-08T22:38:24.238Z,101597.13
2023-04-08T22:40:51.103Z,101595.47
2023-04-08T22:43:17.851Z,101597.13
2023-04-08T22:45:44.618Z,101591.88
2023-04-08T22:48:11.568Z,101595.25
2023-04-08T22:50:38.493Z,101589.41
2023-04-08T22:53:05.448Z,101589.91
2023-04-08T22:55:32.260Z,101593.84
2023-04-08T22:57:58.985Z,101591.34
2023-04-08T23:00:25.964Z,101586.63
2023-04-08T23:02:52.569Z,101586.63
2023-04-08T23:05:19.215Z,101580.25
2023-04-08T23:07:45.791Z,101579.44
2023-04-08T23:10:12.423Z,101582.22
2023-04-08T23:12:39.265Z,101584.44
2023-04-08T23:15:06.219Z,101575.28
2023-04-08T23:17:32.824Z,101580.56
2023-04-08T23:19:59.443Z,101577.78
2023-04-08T23:22:26.142Z,101577.78
2023-04-08T23:24:52.805Z,101587.75
2023-04-08T23:27:19.307Z,101581.66
2023-04-08T23:29:45.929Z,101588.88
2023-04-08T23:32:12.545Z,101584.44
2023-04-08T23:34:39.215Z,101586.38
2023-04-08T23:37:05.846Z,101583.59
2023-04-08T23:39:32.538Z,101588.34
2023-04-08T23:41:59.025Z,101588.34
2023-04-08T23:44:25.705Z,101588.34
2023-04-08T23:46:52.368Z,101589.47
2023-04-08T23:49:19.108Z,101580.84
2023-04-08T23:51:45.861Z,101589.47
2023-04-08T23:54:12.509Z,101585.59
2023-04-08T23:56:40.322Z,101590.06
2023-04-08T23:59:06.977Z,101594.50
